Time;durP1;ratioP1;P1;durP2;ratioP2;P2;SDS_P1;SDS_P2;PMS_P1;PMS_P2;Temp;Humidity;BMP_temperature;BMP_pressure;BME280_temperature;BME280_humidity;BME280_pressure;Samples;Min_cycle;Max_cycle;Signal;HPM_P1;HPM_P2
2023/06/07 00:02:01;;;;;;;11.95;4.63;;;;;;;18.96;71.67;101619.75;5001317;28;20034;-72
2023/06/07 00:04:27;;;;;;;13.80;5.25;;;;;;;18.94;71.74;101614.69;4999648;28;20139;-72
2023/06/07 00:07:00;;;;;;;11.40;4.65;;;;;;;18.94;71.70;101621.75;5003158;28;20040;-72
2023/06/07 00:09:35;;;;;;;12.70;5.05;;;;;;;18.90;71.77;101618.69;4996755;28;20496;-72
2023/06/07 00:12:00;;;;;;;10.48;5.72;;;;;;;18.86;71.94;101620.88;4995560;28;20029;-72
2023/06/07 00:14:26;;;;;;;9.48;5.07;;;;;;;18.82;72.05;101622.28;4998325;28;20428;-72
2023/06/07 00:16:53;;;;;;;9.40;5.15;;;;;;;18.78;71.96;101625.44;4984456;28;20205;-72
2023/06/07 00:19:25;;;;;;;10.00;5.07;;;;;;;18.75;72.16;101625.81;4995752;28;20205;-71
2023/06/07 00:21:55;;;;;;;11.57;5.07;;;;;;;18.71;72.25;101620.13;4997364;28;20847;-71
2023/06/07 00:24:21;;;;;;;16.20;5.85;;;;;;;18.68;72.35;101631.00;5008711;28;20103;-71
2023/06/07 00:26:47;;;;;;;13.38;5.35;;;;;;;18.62;72.67;101631.78;5018560;28;20041;-72
2023/06/07 00:29:14;;;;;;;19.35;5.82;;;;;;;18.53;72.98;101638.16;5012220;28;20042;-72
2023/06/07 00:31:39;;;;;;;8.90;4.72;;;;;;;18.47;73.12;101635.28;5002064;28;20014;-71
2023/06/07 00:34:05;;;;;;;11.18;5.55;;;;;;;18.45;73.12;101639.09;4983665;28;20417;-72
2023/06/07 00:36:32;;;;;;;10.25;5.60;;;;;;;18.39;73.21;101637.22;5001464;28;20037;-71
2023/06/07 00:38:58;;;;;;;11.90;5.38;;;;;;;18.32;73.80;101634.53;5011861;28;20110;-72
2023/06/07 00:41:23;;;;;;;13.48;5.38;;;;;;;18.27;74.01;101626.41;5038059;28;20037;-72
2023/06/07 00:43:49;;;;;;;9.73;4.90;;;;;;;18.22;74.16;101631.41;5020026;28;20065;-72
2023/06/07 00:46:19;;;;;;;17.77;6.78;;;;;;;18.13;74.46;101630.69;5021110;28;20029;-72
2023/06/07 00:48:45;;;;;;;11.77;4.80;;;;;;;18.10;74.72;101631.06;5020667;28;20056;-72
2023/06/07 00:51:11;;;;;;;10.20;5.07;;;;;;;18.07;74.92;101634.06;5036042;28;20053;-72
2023/06/07 00:53:37;;;;;;;14.00;5.63;;;;;;;18.04;74.91;101631.81;5000345;28;20488;-72
2023/06/07 00:56:05;;;;;;;14.85;5.90;;;;;;;17.99;74.87;101631.53;5007837;28;20034;-71
2023/06/07 00:58:32;;;;;;;10.65;5.30;;;;;;;17.91;75.48;101637.72;5019004;28;20065;-72
2023/06/07 01:01:00;;;;;;;13.82;6.97;;;;;;;17.86;75.59;101634.84;5014600;28;20037;-71
2023/06/07 01:03:26;;;;;;;15.07;5.90;;;;;;;17.79;75.98;101632.09;5016869;28;20645;-71
2023/06/07 01:05:54;;;;;;;10.90;5.30;;;;;;;17.74;75.94;101628.41;4984808;28;20104;-71
2023/06/07 01:08:21;;;;;;;12.55;5.82;;;;;;;17.66;76.42;101621.47;5001014;28;21253;-72
2023/06/07 01:10:48;;;;;;;13.18;6.03;;;;;;;17.58;76.81;101624.19;5013486;28;20034;-71
2023/06/07 01:13:15;;;;;;;11.07;5.65;;;;;;;17.52;77.32;101628.34;4998946;28;20038;-71
2023/06/07 01:15:41;;;;;;;12.00;5.65;;;;;;;17.47;77.42;101623.63;5002456;28;20026;-72
2023/06/07 01:18:09;;;;;;;13.10;6.13;;;;;;;17.38;78.15;101626.53;4984347;28;20032;-71
2023/06/07 01:20:37;;;;;;;14.90;6.22;;;;;;;17.37;78.00;101624.94;5022149;28;20026;-72
2023/06/07 01:23:07;;;;;;;15.77;6.25;;;;;;;17.36;78.05;101626.72;5019721;28;20028;-71
2023/06/07 01:25:33;;;;;;;14.15;6.97;;;;;;;17.35;78.16;101619.84;5000437;28;20026;-71
2023/06/07 01:28:00;;;;;;;12.90;6.97;;;;;;;17.29;78.14;101624.00;4998139;28;20042;-71
2023/06/07 01:30:31;;;;;;;11.20;6.53;;;;;;;17.26;78.24;101627.00;5036968;28;20690;-71
2023/06/07 01:33:03;;;;;;;15.82;5.70;;;;;;;17.21;78.40;101621.47;5038038;28;20042;-72
2023/06/07 01:35:29;;;;;;;12.93;6.30;;;;;;;17.12;79.17;101625.16;5037270;28;20049;-71
2023/06/07 01:37:56;;;;;;;12.20;5.55;;;;;;;17.08;79.33;101618.66;5020197;28;20728;-73
2023/06/07 01:40:23;;;;;;;17.52;6.57;;;;;;;16.98;79.92;101624.16;5023003;28;20028;-71
2023/06/07 01:42:50;;;;;;;10.88;5.15;;;;;;;16.95;80.02;101621.06;5020741;28;20060;-71
2023/06/07 01:45:15;;;;;;;9.57;5.85;;;;;;;16.95;79.71;101611.41;4985140;28;20746;-71
2023/06/07 01:47:41;;;;;;;13.88;6.90;;;;;;;16.96;79.87;101618.28;4999916;28;20154;-72
2023/06/07 01:50:09;;;;;;;13.43;6.10;;;;;;;16.97;79.87;101619.91;5017912;28;20175;-71
2023/06/07 01:52:34;;;;;;;10.38;4.97;;;;;;;16.95;79.75;101623.69;5022542;28;20048;-71
2023/06/07 01:55:01;;;;;;;13.95;6.13;;;;;;;16.85;80.26;101616.91;5018285;28;21015;-71
2023/06/07 01:57:39;;;;;;;15.00;6.25;;;;;;;16.79;80.82;101628.06;5017532;28;20038;-71
2023/06/07 02:00:21;;;;;;;9.45;5.18;;;;;;;16.70;81.25;101624.69;5019661;28;20033;-71
2023/06/07 02:03:06;;;;;;;13.57;5.60;;;;;;;16.68;81.10;101616.19;5017648;28;20073;-71
2023/06/07 02:05:34;;;;;;;10.43;5.05;;;;;;;16.69;80.78;101617.84;5000274;28;20080;-71
2023/06/07 02:08:07;;;;;;;9.02;5.22;;;;;;;16.65;81.03;101613.09;5000345;28;20022;-71
2023/06/07 02:10:38;;;;;;;11.00;5.72;;;;;;;16.61;81.29;101615.25;5004095;28;20033;-71
2023/06/07 02:13:05;;;;;;;11.90;6.25;;;;;;;16.55;81.37;101614.16;5003940;28;20045;-71
2023/06/07 02:15:30;;;;;;;13.60;6.50;;;;;;;16.51;81.69;101610.28;5017042;28;20030;-71
2023/06/07 02:17:58;;;;;;;13.50;6.65;;;;;;;16.45;81.80;101610.97;5003434;28;20551;-72
2023/06/07 02:20:27;;;;;;;13.98;6.43;;;;;;;16.40;82.05;101613.31;4983517;28;20038;-71
2023/06/07 02:22:56;;;;;;;12.38;6.15;;;;;;;16.35;82.15;101608.59;4999214;28;20028;-72
2023/06/07 02:25:23;;;;;;;9.00;5.80;;;;;;;16.32;82.16;101606.31;5038118;28;20115;-71
2023/06/07 02:27:50;;;;;;;13.85;6.10;;;;;;;16.21;82.59;101603.31;5018511;28;20060;-71
2023/06/07 02:30:16;;;;;;;15.48;6.65;;;;;;;16.13;83.23;101607.59;4999683;28;20034;-71
2023/06/07 02:32:45;;;;;;;14.85;6.28;;;;;;;16.07;83.47;101603.06;5016311;28;20035;-71
2023/06/07 02:35:13;;;;;;;12.10;6.53;;;;;;;16.03;83.74;101609.63;5023364;22;20053;-68
2023/06/07 02:37:40;;;;;;;14.23;5.80;;;;;;;16.02;83.91;101607.19;5036986;28;20129;-68
2023/06/07 02:40:08;;;;;;;9.40;5.78;;;;;;;16.01;83.73;101606.38;5038224;28;20045;-67
2023/06/07 02:42:36;;;;;;;12.07;5.95;;;;;;;16.00;83.64;101604.72;5021254;28;20030;-68
2023/06/07 02:45:06;;;;;;;13.25;6.40;;;;;;;15.98;83.75;101604.09;5010699;28;20053;-68
2023/06/07 02:47:31;;;;;;;14.27;6.28;;;;;;;15.95;83.77;101602.66;4985177;28;20026;-67
2023/06/07 02:49:58;;;;;;;13.32;5.72;;;;;;;15.93;83.71;101603.78;5003198;28;20044;-68
2023/06/07 02:52:25;;;;;;;9.68;5.82;;;;;;;15.90;83.79;101601.53;5004975;28;20037;-67
2023/06/07 02:54:51;;;;;;;16.17;6.95;;;;;;;15.88;83.86;101612.16;5009784;28;20042;-68
2023/06/07 02:57:16;;;;;;;14.90;6.32;;;;;;;15.87;83.94;101604.47;5001646;28;20410;-68
2023/06/07 02:59:42;;;;;;;15.15;6.50;;;;;;;15.79;84.29;101605.34;5009089;28;20226;-68
2023/06/07 03:02:12;;;;;;;15.75;6.70;;;;;;;15.77;84.41;101607.31;4996565;28;20017;-68
2023/06/07 03:04:43;;;;;;;10.77;6.15;;;;;;;15.72;84.65;101605.16;4999366;28;20057;-68
2023/06/07 03:07:13;;;;;;;15.48;7.25;;;;;;;15.67;85.03;101602.25;4996319;28;20983;-69
2023/06/07 03:09:41;;;;;;;18.15;7.90;;;;;;;15.62;85.20;101604.56;5007104;28;20503;-68
2023/06/07 03:12:07;;;;;;;15.48;6.60;;;;;;;15.60;85.24;101613.56;5031531;28;20025;-68
2023/06/07 03:14:42;;;;;;;19.33;6.65;;;;;;;15.60;85.62;101611.75;4992908;28;20050;-67
2023/06/07 03:17:14;;;;;;;14.23;6.78;;;;;;;15.59;85.68;101612.72;4998686;28;20034;-68
2023/06/07 03:19:42;;;;;;;11.63;6.45;;;;;;;15.60;85.66;101608.34;5013611;28;20614;-68
2023/06/07 03:22:08;;;;;;;11.50;6.30;;;;;;;15.61;85.60;101610.75;5014582;28;20022;-67
2023/06/07 03:24:36;;;;;;;16.25;5.95;;;;;;;15.62;85.47;101606.38;5033078;28;20040;-67
2023/06/07 03:27:04;;;;;;;16.17;6.70;;;;;;;15.60;85.27;101600.50;5020190;28;20021;-67
2023/06/07 03:29:32;;;;;;;15.30;6.60;;;;;;;15.61;85.48;101607.34;5005410;28;20077;-68
2023/06/07 03:31:58;;;;;;;15.25;6.95;;;;;;;15.63;85.36;101607.97;4986158;28;20033;-67
2023/06/07 03:34:26;;;;;;;14.73;6.13;;;;;;;15.65;85.37;101616.47;5015036;28;20045;-68
2023/06/07 03:36:52;;;;;;;15.07;7.93;;;;;;;15.68;84.96;101616.13;5004760;28;20487;-68
2023/06/07 03:39:18;;;;;;;15.20;7.55;;;;;;;15.64;84.99;101618.28;5007058;28;20045;-68
2023/06/07 03:41:44;;;;;;;12.60;6.95;;;;;;;15.61;85.33;101618.59;5016310;28;20487;-67
2023/06/07 03:44:13;;;;;;;11.20;6.22;;;;;;;15.62;85.49;101611.59;5016764;28;20050;-67
2023/06/07 03:46:40;;;;;;;18.23;7.10;;;;;;;15.58;85.71;101617.16;5017620;28;20040;-68
2023/06/07 03:49:06;;;;;;;14.02;7.82;;;;;;;15.56;85.80;101616.50;5024737;28;20124;-67
2023/06/07 03:51:32;;;;;;;14.93;6.53;;;;;;;15.57;86.00;101612.91;5020352;28;20092;-67
2023/06/07 03:54:00;;;;;;;14.68;7.53;;;;;;;15.55;85.99;101606.22;5025315;28;20072;-67
2023/06/07 03:56:26;;;;;;;13.93;7.88;;;;;;;15.56;86.13;101613.09;5019638;28;20404;-67
2023/06/07 03:58:53;;;;;;;14.32;6.90;;;;;;;15.58;86.25;101616.34;5015665;28;20038;-68
2023/06/07 04:01:25;;;;;;;18.90;6.93;;;;;;;15.54;86.42;101618.47;4998230;28;20026;-67
2023/06/07 04:03:51;;;;;;;19.85;7.80;;;;;;;15.50;86.41;101617.19;5000442;28;20034;-67
2023/06/07 04:06:20;;;;;;;21.52;8.50;;;;;;;15.49;86.46;101612.13;5002099;28;20026;-67
2023/06/07 04:08:46;;;;;;;15.80;7.50;;;;;;;15.43;86.97;101605.78;4994186;28;20785;-68
2023/06/07 04:11:12;;;;;;;20.70;7.93;;;;;;;15.43;87.06;101612.81;5011016;28;20034;-67
2023/06/07 04:13:41;;;;;;;21.42;7.40;;;;;;;15.49;86.85;101615.53;5009656;28;20128;-68
2023/06/07 04:16:07;;;;;;;14.98;7.97;;;;;;;15.52;87.13;101622.22;5005015;28;20108;-68
2023/06/07 04:18:32;;;;;;;18.98;7.90;;;;;;;15.46;87.13;101615.88;5016605;28;20041;-68
2023/06/07 04:21:02;;;;;;;15.57;7.20;;;;;;;15.47;87.12;101619.31;4996700;28;20026;-68
2023/06/07 04:23:29;;;;;;;11.82;6.40;;;;;;;15.53;86.98;101626.47;5000669;28;20494;-67
2023/06/07 04:25:55;;;;;;;19.75;7.55;;;;;;;15.53;86.06;101637.75;5001363;28;20034;-68
2023/06/07 04:28:23;;;;;;;14.82;7.57;;;;;;;15.58;85.94;101634.63;4989341;28;20046;-68
2023/06/07 04:30:56;;;;;;;19.02;8.18;;;;;;;15.47;86.24;101637.63;5013866;28;20038;-68
2023/06/07 04:33:23;;;;;;;13.10;6.70;;;;;;;15.45;86.40;101624.72;5009461;28;20454;-68
2023/06/07 04:35:50;;;;;;;15.95;7.20;;;;;;;15.43;86.79;101620.66;5000717;28;20065;-67
2023/06/07 04:38:21;;;;;;;19.13;7.78;;;;;;;15.44;86.73;101628.28;5003344;28;20042;-68
2023/06/07 04:40:53;;;;;;;12.13;7.25;;;;;;;15.42;87.29;101632.06;4998372;28;20034;-68
2023/06/07 04:43:37;;;;;;;20.50;7.25;;;;;;;15.37;87.45;101628.16;5017752;28;20130;-68
2023/06/07 04:46:05;;;;;;;12.45;7.20;;;;;;;15.43;86.85;101628.50;4985410;28;20038;-68
2023/06/07 04:48:31;;;;;;;20.48;8.82;;;;;;;15.44;86.85;101630.91;5013920;28;20048;-68
2023/06/07 04:51:03;;;;;;;20.42;8.07;;;;;;;15.44;87.01;101627.50;5005208;28;20030;-68
2023/06/07 04:53:36;;;;;;;;;;;;;;;15.45;87.05;101629.94;5025244;28;20041;-67
2023/06/07 04:56:03;;;;;;;16.25;7.10;;;;;;;15.44;87.04;101630.91;5036834;28;19917;-68
2023/06/07 04:58:31;;;;;;;18.08;7.70;;;;;;;15.44;87.26;101625.69;5015094;28;20492;-68
2023/06/07 05:00:59;;;;;;;15.50;7.20;;;;;;;15.51;87.29;101620.59;4996537;28;20444;-68
2023/06/07 05:03:28;;;;;;;14.20;7.63;;;;;;;15.51;87.31;101629.25;5014592;28;20116;-67
2023/06/07 05:05:55;;;;;;;15.10;8.00;;;;;;;15.58;86.33;101627.59;5013442;28;20034;-67
2023/06/07 05:08:23;;;;;;;15.43;7.35;;;;;;;15.61;86.60;101625.63;5000582;28;20113;-68
2023/06/07 05:10:49;;;;;;;18.35;7.38;;;;;;;15.66;86.63;101631.97;5018467;28;20029;-67
2023/06/07 05:13:15;;;;;;;17.25;7.32;;;;;;;15.74;85.67;101633.78;4998362;28;20095;-68
2023/06/07 05:15:40;;;;;;;18.40;8.60;;;;;;;15.67;85.25;101631.03;4989453;28;20030;-68
2023/06/07 05:18:09;;;;;;;18.65;8.32;;;;;;;15.72;85.21;101630.50;5025205;28;20511;-68
2023/06/07 05:20:35;;;;;;;20.20;7.65;;;;;;;15.67;85.04;101635.41;5023228;28;20022;-68
2023/06/07 05:23:03;;;;;;;23.27;8.85;;;;;;;15.61;85.59;101636.09;5036143;28;20040;-68
2023/06/07 05:25:31;;;;;;;17.45;8.18;;;;;;;15.61;85.23;101639.50;5025624;28;20379;-68
2023/06/07 05:27:58;;;;;;;17.17;8.00;;;;;;;15.55;86.08;101637.59;5037097;28;20040;-68
2023/06/07 05:30:24;;;;;;;17.05;7.15;;;;;;;15.59;86.13;101638.88;5036630;28;20025;-68
2023/06/07 05:32:51;;;;;;;18.85;8.65;;;;;;;15.58;85.57;101643.28;5036282;28;20500;-68
2023/06/07 05:35:17;;;;;;;16.30;9.40;;;;;;;15.61;85.78;101642.13;5016720;28;20034;-68
2023/06/07 05:37:45;;;;;;;16.40;8.00;;;;;;;15.67;86.16;101644.09;4988950;28;20096;-68
2023/06/07 05:40:15;;;;;;;28.77;8.95;;;;;;;15.69;85.32;101644.72;5004432;28;20050;-68
2023/06/07 05:42:41;;;;;;;15.77;8.35;;;;;;;15.68;85.34;101640.47;5022012;28;20480;-68
2023/06/07 05:45:11;;;;;;;19.55;9.07;;;;;;;15.72;85.09;101639.16;5004720;28;20037;-67
2023/06/07 05:47:37;;;;;;;20.73;8.93;;;;;;;15.81;84.52;101639.97;5001892;28;20042;-68
2023/06/07 05:50:04;;;;;;;19.73;9.15;;;;;;;15.84;84.62;101644.88;5019865;28;20038;-68
2023/06/07 05:52:30;;;;;;;24.95;9.73;;;;;;;15.86;83.67;101649.91;5008244;28;20115;-68
2023/06/07 05:54:57;;;;;;;21.42;8.43;;;;;;;15.87;83.27;101646.31;5003904;28;20694;-68
2023/06/07 05:57:23;;;;;;;16.30;8.30;;;;;;;15.89;83.69;101647.78;5008348;28;20041;-68
2023/06/07 05:59:48;;;;;;;26.00;8.57;;;;;;;15.85;83.57;101654.31;5021235;28;20095;-68
2023/06/07 06:02:20;;;;;;;17.95;9.30;;;;;;;15.96;82.88;101650.53;5022225;28;20037;-67
2023/06/07 06:04:45;;;;;;;20.27;8.38;;;;;;;16.01;82.45;101648.22;5038273;28;20049;-68
2023/06/07 06:07:11;;;;;;;13.15;7.68;;;;;;;16.04;82.99;101652.28;5036521;28;20037;-68
2023/06/07 06:09:36;;;;;;;20.60;8.63;;;;;;;16.09;83.22;101648.16;5021644;28;20045;-67
2023/06/07 06:12:02;;;;;;;21.13;8.57;;;;;;;16.14;83.09;101650.25;5019961;28;20600;-68
2023/06/07 06:14:28;;;;;;;21.58;9.10;;;;;;;16.27;81.91;101654.94;5003470;28;20056;-68
2023/06/07 06:16:53;;;;;;;31.50;10.40;;;;;;;16.53;80.42;101652.78;5020655;28;20025;-68
2023/06/07 06:19:19;;;;;;;24.38;10.05;;;;;;;16.60;79.96;101652.13;5016254;28;20057;-68
2023/06/07 06:21:44;;;;;;;18.27;8.48;;;;;;;16.55;80.00;101652.63;5022741;28;20034;-69
2023/06/07 06:24:10;;;;;;;19.52;9.27;;;;;;;16.67;79.86;101659.09;5034127;28;20107;-68
2023/06/07 06:26:35;;;;;;;19.77;8.07;;;;;;;16.70;79.79;101658.72;5026215;28;20032;-68
2023/06/07 06:29:01;;;;;;;23.73;9.63;;;;;;;16.69;80.62;101658.94;5009633;28;20046;-70
2023/06/07 06:31:27;;;;;;;19.30;8.52;;;;;;;16.69;80.78;101664.16;5017532;28;20037;-68
2023/06/07 06:33:52;;;;;;;21.00;8.52;;;;;;;16.76;79.78;101665.06;4991113;28;20034;-68
2023/06/07 06:36:20;;;;;;;24.85;8.90;;;;;;;16.82;79.56;101666.16;5018845;28;20039;-68
2023/06/07 06:38:46;;;;;;;25.10;8.63;;;;;;;16.90;79.13;101676.63;4999938;28;20050;-68
2023/06/07 06:41:12;;;;;;;25.77;12.27;;;;;;;16.79;78.31;101675.19;5001482;28;20499;-68
2023/06/07 06:43:38;;;;;;;22.00;10.23;;;;;;;16.82;78.87;101672.28;5005936;28;20530;-69
2023/06/07 06:46:04;;;;;;;21.52;9.93;;;;;;;16.89;79.26;101677.59;5019834;28;20531;-69
2023/06/07 06:48:30;;;;;;;22.48;9.25;;;;;;;16.81;78.65;101681.06;5021448;28;20038;-68
2023/06/07 06:50:55;;;;;;;24.38;9.20;;;;;;;16.79;78.80;101685.69;5020399;28;20041;-68
2023/06/07 06:53:21;;;;;;;20.70;9.40;;;;;;;16.77;78.35;101689.47;5019262;28;20041;-68
2023/06/07 06:55:47;;;;;;;19.67;8.35;;;;;;;16.80;79.12;101687.31;5032794;28;20463;-68
2023/06/07 06:58:13;;;;;;;21.33;8.95;;;;;;;16.88;78.98;101683.84;5033957;28;20037;-69
2023/06/07 07:00:39;;;;;;;27.40;9.52;;;;;;;16.96;79.10;101691.63;5020624;28;20056;-68
2023/06/07 07:03:05;;;;;;;19.80;9.07;;;;;;;17.01;77.84;101685.84;5037811;28;20033;-69
2023/06/07 07:05:30;;;;;;;18.02;8.82;;;;;;;17.02;77.98;101700.59;5023242;28;20490;-68
2023/06/07 07:07:56;;;;;;;22.83;8.85;;;;;;;17.01;76.94;101697.16;5026178;28;20033;-69
2023/06/07 07:10:22;;;;;;;21.40;8.20;;;;;;;17.02;77.44;101700.59;5003384;28;20026;-68
2023/06/07 07:12:47;;;;;;;26.67;10.00;;;;;;;17.00;77.61;101702.56;5002415;28;23066;-68
2023/06/07 07:15:13;;;;;;;23.08;8.98;;;;;;;17.02;76.59;101697.97;5006624;28;20068;-68
2023/06/07 07:17:46;;;;;;;17.33;8.10;;;;;;;17.12;77.08;101703.75;5000508;28;20030;-68
2023/06/07 07:20:13;;;;;;;20.73;9.68;;;;;;;17.03;76.59;101697.78;5018809;28;20041;-68
2023/06/07 07:22:38;;;;;;;23.83;9.57;;;;;;;16.93;77.47;101705.06;5005353;28;20046;-68
2023/06/07 07:25:06;;;;;;;17.70;9.13;;;;;;;16.91;77.49;101697.41;4999533;28;20034;-68
2023/06/07 07:27:31;;;;;;;21.13;9.10;;;;;;;16.87;77.48;101697.91;4998681;28;20072;-68
2023/06/07 07:29:57;;;;;;;20.73;9.68;;;;;;;16.88;77.97;101712.66;5031807;28;20084;-68
2023/06/07 07:32:22;;;;;;;18.95;9.68;;;;;;;16.98;77.31;101710.59;5038484;28;20030;-69
2023/06/07 07:34:48;;;;;;;20.17;9.80;;;;;;;17.00;76.84;101713.84;5021834;28;20045;-68
2023/06/07 07:37:14;;;;;;;17.98;8.48;;;;;;;16.95;77.72;101705.69;5002650;28;20041;-68
2023/06/07 07:39:39;;;;;;;18.58;8.63;;;;;;;17.06;78.00;101707.91;5001119;28;20455;-69
2023/06/07 07:42:05;;;;;;;24.08;9.40;;;;;;;16.97;77.84;101710.78;5002595;28;20056;-67
2023/06/07 07:44:32;;;;;;;17.48;8.45;;;;;;;17.03;77.45;101710.91;4999806;28;20081;-68
2023/06/07 07:46:58;;;;;;;21.58;9.70;;;;;;;17.12;77.20;101709.00;5004416;28;20033;-68
2023/06/07 07:49:23;;;;;;;28.35;9.73;;;;;;;17.05;76.65;101715.97;5014147;28;20029;-68
2023/06/07 07:51:49;;;;;;;22.33;9.75;;;;;;;17.04;76.14;101722.19;5026383;28;20407;-68
2023/06/07 07:54:15;;;;;;;18.15;9.15;;;;;;;17.05;76.53;101715.97;5009360;28;20049;-68
2023/06/07 07:56:42;;;;;;;23.90;9.63;;;;;;;16.95;76.23;101728.47;5004616;28;20044;-68
2023/06/07 07:59:08;;;;;;;21.58;9.15;;;;;;;16.91;77.53;101728.84;5011256;28;21056;-68
2023/06/07 08:01:34;;;;;;;19.40;9.30;;;;;;;16.98;76.85;101731.56;5017013;28;20033;-68
2023/06/07 08:04:00;;;;;;;23.08;10.23;;;;;;;17.13;76.37;101729.78;5021311;28;20425;-68
2023/06/07 08:06:25;;;;;;;27.85;9.45;;;;;;;17.08;75.42;101731.31;5036923;28;20029;-68
2023/06/07 08:08:51;;;;;;;24.85;8.90;;;;;;;16.98;76.86;101738.63;5012467;28;20053;-68
2023/06/07 08:11:17;;;;;;;18.38;8.95;;;;;;;16.92;76.81;101727.03;4999036;28;20487;-67
2023/06/07 08:13:43;;;;;;;22.20;9.88;;;;;;;16.89;76.18;101733.41;5001540;28;20129;-68
2023/06/07 08:16:08;;;;;;;21.67;8.77;;;;;;;16.93;76.92;101726.03;5014438;28;20069;-68
2023/06/07 08:18:34;;;;;;;32.15;10.93;;;;;;;17.00;77.04;101729.56;5001276;28;20037;-68
2023/06/07 08:20:59;;;;;;;25.88;10.23;;;;;;;16.86;77.48;101728.53;4999324;28;20026;-67
2023/06/07 08:23:25;;;;;;;24.55;9.63;;;;;;;16.77;76.50;101728.75;5002925;28;20049;-68
2023/06/07 08:25:51;;;;;;;23.85;9.68;;;;;;;16.78;77.28;101731.16;4989693;28;20030;-68
2023/06/07 08:28:17;;;;;;;24.85;10.80;;;;;;;16.73;77.31;101731.72;5001288;28;20056;-68
2023/06/07 08:30:43;;;;;;;21.25;9.70;;;;;;;16.71;76.95;101735.50;5020460;28;20116;-68
2023/06/07 08:33:08;;;;;;;20.05;9.27;;;;;;;16.68;77.62;101739.25;5000369;28;20072;-68
2023/06/07 08:35:34;;;;;;;26.02;9.43;;;;;;;16.73;76.41;101746.63;5027533;23;20601;-72
2023/06/07 08:38:00;;;;;;;22.42;10.30;;;;;;;16.61;76.87;101745.38;5034914;28;20040;-72
2023/06/07 08:40:26;;;;;;;21.73;9.35;;;;;;;16.69;76.81;101748.75;5039763;28;20041;-72
2023/06/07 08:42:52;;;;;;;19.90;8.68;;;;;;;16.61;77.13;101748.78;5034106;28;20037;-72
2023/06/07 08:45:17;;;;;;;26.40;10.63;;;;;;;16.41;78.04;101756.28;5004890;28;20426;-72
2023/06/07 08:47:46;;;;;;;21.85;9.88;;;;;;;16.43;78.11;101750.88;5033367;28;20503;-72
2023/06/07 08:50:15;;;;;;;29.08;10.55;;;;;;;16.38;78.31;101747.94;5049887;28;20044;-71
2023/06/07 08:52:42;;;;;;;19.25;9.07;;;;;;;16.40;78.54;101746.78;5041919;28;20029;-72
2023/06/07 08:55:12;;;;;;;29.63;9.45;;;;;;;16.56;78.53;101756.38;5055206;28;20048;-72
2023/06/07 08:57:38;;;;;;;22.13;10.40;;;;;;;16.49;79.47;101743.13;5055479;28;20025;-71
2023/06/07 09:00:07;;;;;;;24.48;10.07;;;;;;;16.57;81.35;101741.47;5059583;28;20072;-71
2023/06/07 09:02:33;;;;;;;23.38;9.90;;;;;;;16.48;82.67;101748.53;5040854;28;20482;-72
2023/06/07 09:05:05;;;;;;;20.30;9.82;;;;;;;16.38;83.22;101746.13;5039015;28;20036;-72
2023/06/07 09:07:31;;;;;;;26.52;11.05;;;;;;;16.44;82.92;101748.06;5028900;28;20410;-72
2023/06/07 09:09:57;;;;;;;21.27;9.95;;;;;;;16.41;83.69;101748.44;5042517;28;20587;-72
2023/06/07 09:12:22;;;;;;;25.33;10.07;;;;;;;16.39;83.05;101744.34;5053557;28;20032;-71
2023/06/07 09:14:48;;;;;;;24.65;9.90;;;;;;;16.34;84.00;101739.63;5053109;28;20045;-72
2023/06/07 09:17:13;;;;;;;20.15;10.48;;;;;;;16.24;85.34;101742.47;5057755;28;20071;-71
2023/06/07 09:19:42;;;;;;;20.98;9.75;;;;;;;16.21;87.13;101726.28;5037514;28;20305;-71
2023/06/07 09:22:12;;;;;;;24.58;10.88;;;;;;;16.29;88.35;101736.69;5055175;28;20131;-71
2023/06/07 09:24:42;;;;;;;21.67;9.70;;;;;;;16.33;87.83;101736.19;5043081;28;20107;-71
2023/06/07 09:27:10;;;;;;;30.40;11.23;;;;;;;16.31;88.56;101732.94;5026370;28;20393;-71
2023/06/07 09:29:43;;;;;;;21.88;9.98;;;;;;;16.33;88.15;101723.13;5031412;28;20067;-70
2023/06/07 09:32:19;;;;;;;27.90;11.75;;;;;;;16.27;88.53;101721.16;5037869;28;20550;-70
2023/06/07 09:34:45;;;;;;;18.13;9.90;;;;;;;16.21;89.29;101715.81;5053292;28;20056;-71
2023/06/07 09:37:11;;;;;;;22.98;10.50;;;;;;;16.28;90.08;101714.94;5060373;28;20111;-70
2023/06/07 09:39:38;;;;;;;21.30;11.43;;;;;;;16.42;89.81;101713.41;5044220;28;20661;-70
2023/06/07 09:42:14;;;;;;;22.98;10.95;;;;;;;16.20;89.58;101715.00;5039394;28;20025;-70
2023/06/07 09:44:40;;;;;;;24.77;11.27;;;;;;;16.09;89.66;101718.00;5023054;28;20052;-70
2023/06/07 09:47:07;;;;;;;24.83;11.60;;;;;;;16.16;90.51;101732.00;5037810;28;20499;-70
2023/06/07 09:49:35;;;;;;;31.15;11.88;;;;;;;15.91;91.11;101726.88;5040229;28;20506;-70
2023/06/07 09:52:02;;;;;;;20.35;11.77;;;;;;;15.93;91.08;101739.78;5036999;28;20523;-70
2023/06/07 09:54:45;;;;;;;27.25;12.00;;;;;;;15.84;91.46;101744.25;5013972;28;20078;-70
2023/06/07 09:57:25;;;;;;;24.10;12.05;;;;;;;15.77;92.53;101743.28;5022650;28;20109;-70
2023/06/07 10:02:38;;;;;;;27.60;12.02;;;;;;;15.77;93.20;101743.28;5057667;28;20044;-70
2023/06/07 10:05:04;;;;;;;23.00;11.18;;;;;;;15.80;93.47;101740.31;5038668;28;20044;-70
2023/06/07 10:07:44;;;;;;;22.63;11.75;;;;;;;15.83;93.46;101744.41;5038145;28;20059;-70
2023/06/07 10:10:11;;;;;;;23.77;11.90;;;;;;;15.88;92.77;101734.22;5052894;28;20119;-70
2023/06/07 10:12:40;;;;;;;27.83;12.23;;;;;;;15.92;92.04;101736.34;5058951;28;20060;-70
2023/06/07 10:15:11;;;;;;;22.83;12.10;;;;;;;15.74;91.81;101741.78;5048902;28;20490;-70
2023/06/07 10:17:52;;;;;;;32.25;12.40;;;;;;;15.60;93.19;101746.88;5036349;28;20174;-70
2023/06/07 10:20:26;;;;;;;23.85;11.98;;;;;;;15.64;92.46;101738.53;5032893;28;20080;-70
2023/06/07 10:22:57;;;;;;;24.70;12.75;;;;;;;15.60;92.33;101746.88;5023936;28;20089;-70
2023/06/07 10:25:28;;;;;;;23.27;12.48;;;;;;;15.67;92.43;101746.03;5050606;28;20040;-70
2023/06/07 10:28:24;;;;;;;28.02;13.45;;;;;;;15.84;93.22;101746.00;5055039;28;20056;-71
2023/06/07 10:30:57;;;;;;;26.83;12.27;;;;;;;15.72;94.61;101740.31;5019170;28;20066;-71
2023/06/07 10:33:25;;;;;;;28.80;12.85;;;;;;;15.71;96.32;101749.97;5018425;28;20101;-70
2023/06/07 10:35:51;;;;;;;29.27;13.90;;;;;;;15.68;96.38;101741.63;5035575;28;20037;-70
2023/06/07 10:38:16;;;;;;;34.42;15.25;;;;;;;15.63;96.85;101741.31;5035090;28;20475;-70
2023/06/07 10:40:43;;;;;;;30.35;14.07;;;;;;;15.60;96.99;101742.47;5054887;28;20028;-71
2023/06/07 10:43:09;;;;;;;25.98;13.88;;;;;;;15.72;97.52;101733.28;5035752;28;20039;-72
2023/06/07 10:45:34;;;;;;;32.88;14.80;;;;;;;15.65;97.82;101736.72;5023422;28;20029;-70
2023/06/07 10:48:31;;;;;;;27.05;12.50;;;;;;;15.56;99.40;101728.91;5015292;28;20425;-70
2023/06/07 10:50:56;;;;;;;29.52;14.45;;;;;;;15.59;99.21;101727.75;5016502;28;20017;-70
2023/06/07 10:53:22;;;;;;;22.52;13.40;;;;;;;15.62;99.61;101734.47;5032914;28;20056;-70
2023/06/07 10:55:47;;;;;;;28.70;13.32;;;;;;;15.55;99.08;101736.91;5034351;28;20033;-70
2023/06/07 10:58:26;;;;;;;24.58;13.52;;;;;;;15.61;100.00;101731.00;5038215;28;20040;-70
2023/06/07 11:00:56;;;;;;;24.02;13.55;;;;;;;15.78;100.00;101729.19;5047378;28;20509;-70
2023/06/07 11:03:24;;;;;;;33.42;15.75;;;;;;;15.93;100.00;101740.59;5034569;28;20051;-70
2023/06/07 11:05:53;;;;;;;27.48;13.95;;;;;;;15.75;97.94;101740.00;5052634;28;20039;-70
2023/06/07 11:08:29;;;;;;;34.75;14.63;;;;;;;15.72;97.72;101733.28;5036795;28;20634;-70
2023/06/07 11:11:02;;;;;;;30.48;15.25;;;;;;;15.66;98.47;101733.94;5053115;28;20027;-70
2023/06/07 11:13:42;;;;;;;20.55;12.40;;;;;;;15.72;98.91;101728.03;5014031;28;20488;-70
2023/06/07 11:16:23;;;;;;;33.40;15.48;;;;;;;15.86;99.19;101725.75;5035856;28;20036;-70
2023/06/07 11:19:00;;;;;;;29.75;15.07;;;;;;;15.80;98.08;101719.38;5034278;28;20545;-70
2023/06/07 11:21:30;;;;;;;31.15;15.10;;;;;;;15.79;97.66;101719.56;5019754;28;20021;-70
2023/06/07 11:24:17;;;;;;;35.08;14.77;;;;;;;15.85;97.87;101711.06;5050826;28;20044;-70